モンテレー の空港の天気 - METARとTAF

ヘネラル・マリアノ・エソコベド国際空港 ( MMMY / MTY ) - メキシコ ヌエボ・レオン州モンテレー
飛行場実況気象(Metar)
観測時間11/27 01:41 CST (11/27 07:41 UTC)
風向・風速西北西 3m/s
視程6450m
天気現象
なし
気温10℃
湿度100%
気圧1014hPa
METARMMMY 270741Z 29006KT 4SM SKC 10/10 A2993
過去の天気等 Google飛行場航空写真 Wunderground天気予報

過去48時間のMETAR

飛行場予報(TAF)
発表時間: 11/26 23:04 CST (11/27 05:04 UTC)
予報対象時間: 27日0時 CST ~ 28日6時 CST
風向・風速西 3m/s
視程10km以上
なし
27日5時 CST ~ 27日9時 CST に一時的に
視程4830m
天気現象もや 煙霧
全天の8割程度の雲 雲底高度 370m
27日12時 CST から
風向・風速南東 4m/s
視程10km以上
全天の4割程度の雲 雲底高度 910m
全天の4割程度の雲 雲底高度 7620m
27日23時 CST から
風向・風速南南東 3m/s
視程10km以上
なし
TAF MMMY 270504Z 2706/2812 26005KT P6SM SKC TX23/2721Z TN10/2712Z
TEMPO 2711/2715 3SM BR HZ BKN012
FM271800 13008KT P6SM SCT030 SCT250
FM280500 16005KT P6SM SKC